Time;durP1;ratioP1;P1;durP2;ratioP2;P2;SDS_P1;SDS_P2;PMS_P1;PMS_P2;Temp;Humidity;BMP_temperature;BMP_pressure;BME280_temperature;BME280_humidity;BME280_pressure;Samples;Min_cycle;Max_cycle;Signal;HPM_P1;HPM_P2
2022/12/14 06:04:14;;;;;;;18.40;9.10;;;;;;;;;;5156093;23;20108;-60
2022/12/14 06:06:42;;;;;;;17.02;8.48;;;;;;;;;;4913637;29;20503;-64
2022/12/14 06:09:09;;;;;;;16.60;8.65;;;;;;;;;;4914192;29;20033;-68
2022/12/14 06:11:39;;;;;;;16.83;8.80;;;;;;;;;;4914593;29;20494;-61
2022/12/14 06:14:06;;;;;;;16.80;8.23;;;;;;;;;;4913948;29;20032;-63
2022/12/14 06:16:32;;;;;;;15.65;8.35;;;;;;;;;;4913766;29;20028;-60
2022/12/14 06:19:00;;;;;;;15.90;7.68;;;;;;;;;;4914467;29;20028;-58
2022/12/14 06:21:29;;;;;;;17.63;8.45;;;;;;;;;;4914669;29;20028;-60
2022/12/14 06:23:56;;;;;;;17.08;8.50;;;;;;;;;;4905017;29;20029;-67
2022/12/14 06:26:22;;;;;;;18.73;8.77;;;;;;;;;;4902756;29;20032;-62
2022/12/14 06:28:49;;;;;;;16.35;8.32;;;;;;;;;;4904047;29;20376;-58
2022/12/14 06:31:16;;;;;;;16.17;8.38;;;;;;;;;;4904539;29;20029;-70
2022/12/14 06:33:43;;;;;;;21.58;9.10;;;;;;;;;;4885778;29;20445;-61
2022/12/14 06:36:32;;;;;;;16.92;9.32;;;;;;;;;;4903872;29;20051;-65
2022/12/14 06:39:00;;;;;;;17.40;8.52;;;;;;;;;;4835150;29;20041;-63
2022/12/14 06:41:26;;;;;;;16.27;8.70;;;;;;;;;;4836103;29;20117;-61
2022/12/14 06:43:52;;;;;;;18.58;8.05;;;;;;;;;;4836277;29;20054;-68
2022/12/14 06:46:20;;;;;;;17.52;8.68;;;;;;;;;;4836065;29;20030;-59
2022/12/14 06:48:50;;;;;;;16.48;7.93;;;;;;;;;;4835627;29;20067;-59
2022/12/14 06:51:16;;;;;;;17.70;8.63;;;;;;;;;;4835742;29;20467;-59
2022/12/14 06:53:42;;;;;;;17.67;8.77;;;;;;;;;;4835762;29;20120;-59
2022/12/14 06:56:09;;;;;;;18.77;9.10;;;;;;;;;;4836085;29;20069;-66
2022/12/14 06:58:35;;;;;;;16.52;8.93;;;;;;;;;;4835839;29;20484;-58
2022/12/14 07:01:06;;;;;;;16.65;8.98;;;;;;;;;;4836196;29;20451;-58
2022/12/14 07:03:32;;;;;;;15.35;8.18;;;;;;;;;;4826239;29;20053;-67
2022/12/14 07:05:59;;;;;;;16.02;8.52;;;;;;;;;;4817604;29;20126;-59
2022/12/14 07:08:25;;;;;;;15.95;7.82;;;;;;;;;;4820709;29;20179;-59
2022/12/14 07:10:51;;;;;;;15.75;8.23;;;;;;;;;;4804954;29;20038;-65
2022/12/14 07:13:17;;;;;;;13.80;8.25;;;;;;;;;;4820598;29;20082;-58
2022/12/14 07:15:43;;;;;;;17.42;8.68;;;;;;;;;;4846546;29;20068;-59
2022/12/14 07:18:11;;;;;;;19.00;8.82;;;;;;;;;;4870252;29;20025;-59
2022/12/14 07:20:37;;;;;;;16.13;8.80;;;;;;;;;;4887488;29;20021;-58
2022/12/14 07:23:03;;;;;;;18.30;9.05;;;;;;;;;;4888698;29;20489;-59
2022/12/14 07:25:29;;;;;;;19.67;9.80;;;;;;;;;;4887160;29;20533;-59
2022/12/14 07:27:55;;;;;;;19.10;9.57;;;;;;;;;;4887716;29;20052;-59
2022/12/14 07:30:21;;;;;;;16.02;9.00;;;;;;;;;;4888711;29;20068;-59
2022/12/14 07:32:47;;;;;;;15.43;7.55;;;;;;;;;;4883865;29;20052;-58
2022/12/14 07:35:13;;;;;;;14.95;8.55;;;;;;;;;;4889787;29;20039;-58
2022/12/14 07:37:39;;;;;;;16.05;8.82;;;;;;;;;;4898109;29;20027;-58
2022/12/14 07:40:05;;;;;;;17.02;9.45;;;;;;;;;;4897580;29;20055;-58
2022/12/14 07:42:31;;;;;;;17.20;9.40;;;;;;;;;;4889984;29;20060;-61
2022/12/14 07:44:59;;;;;;;22.45;9.93;;;;;;;;;;4879676;29;20072;-62
2022/12/14 07:47:28;;;;;;;20.83;10.32;;;;;;;;;;4881514;29;20035;-69
2022/12/14 07:49:54;;;;;;;20.58;10.23;;;;;;;;;;4886419;29;20032;-60
2022/12/14 07:52:20;;;;;;;20.15;10.18;;;;;;;;;;4886804;29;20044;-59
2022/12/14 07:54:47;;;;;;;18.30;9.52;;;;;;;;;;4886933;29;20025;-63
2022/12/14 07:57:13;;;;;;;22.52;10.27;;;;;;;;;;4887422;29;20055;-66
2022/12/14 07:59:39;;;;;;;16.23;8.68;;;;;;;;;;4886704;29;20021;-59
2022/12/14 08:02:05;;;;;;;18.33;9.70;;;;;;;;;;4889236;29;20040;-60
2022/12/14 08:04:34;;;;;;;20.60;9.13;;;;;;;;;;4883343;29;20068;-68
2022/12/14 08:07:00;;;;;;;18.60;9.63;;;;;;;;;;4884672;29;20025;-69
2022/12/14 08:09:26;;;;;;;19.02;9.50;;;;;;;;;;4889149;29;20496;-69
2022/12/14 08:11:52;;;;;;;22.35;10.63;;;;;;;;;;4889195;29;20084;-59
2022/12/14 08:14:18;;;;;;;19.80;11.20;;;;;;;;;;4868752;29;20120;-60
2022/12/14 08:16:45;;;;;;;23.35;11.52;;;;;;;;;;4864297;29;20485;-60
2022/12/14 08:19:11;;;;;;;21.38;11.38;;;;;;;;;;4880182;29;20088;-58
2022/12/14 08:21:38;;;;;;;20.58;10.85;;;;;;;;;;4886552;29;20125;-59
2022/12/14 08:24:04;;;;;;;23.30;12.02;;;;;;;;;;4882732;29;20044;-59
2022/12/14 08:26:30;;;;;;;19.48;10.57;;;;;;;;;;4887801;29;20409;-59
2022/12/14 08:28:56;;;;;;;23.10;12.00;;;;;;;;;;4897446;29;20370;-69
2022/12/14 08:31:23;;;;;;;23.67;12.52;;;;;;;;;;4897611;29;20036;-59
2022/12/14 08:33:51;;;;;;;25.25;14.02;;;;;;;;;;4896965;29;20088;-59
2022/12/14 08:36:20;;;;;;;28.00;13.80;;;;;;;;;;4897086;29;20043;-67
2022/12/14 08:38:51;;;;;;;28.60;13.13;;;;;;;;;;4895535;29;20029;-62
2022/12/14 08:41:17;;;;;;;27.30;13.27;;;;;;;;;;4882902;29;20112;-59
2022/12/14 08:43:43;;;;;;;28.63;13.80;;;;;;;;;;4877921;29;20029;-67
2022/12/14 08:46:09;;;;;;;30.35;14.23;;;;;;;;;;4878099;29;20103;-61
2022/12/14 08:48:36;;;;;;;27.00;13.27;;;;;;;;;;4889262;29;20397;-60
2022/12/14 08:51:03;;;;;;;27.45;13.65;;;;;;;;;;4890672;29;20032;-60
2022/12/14 08:53:29;;;;;;;25.80;12.45;;;;;;;;;;4888410;29;20029;-62
2022/12/14 08:55:55;;;;;;;24.55;11.43;;;;;;;;;;4881901;29;20056;-62
2022/12/14 08:58:21;;;;;;;22.55;11.63;;;;;;;;;;4880642;29;20037;-59
2022/12/14 09:00:47;;;;;;;23.23;12.15;;;;;;;;;;4878395;29;20504;-59
2022/12/14 09:03:13;;;;;;;22.42;11.77;;;;;;;;;;4877648;29;20131;-60
2022/12/14 09:05:39;;;;;;;22.50;12.35;;;;;;;;;;4877419;29;20065;-59
2022/12/14 09:08:05;;;;;;;21.08;10.73;;;;;;;;;;4887371;29;20163;-59
2022/12/14 09:10:31;;;;;;;23.83;11.50;;;;;;;;;;4886728;29;20036;-60
2022/12/14 09:12:58;;;;;;;20.48;10.93;;;;;;;;;;4883592;29;20036;-60
2022/12/14 09:15:24;;;;;;;18.05;10.30;;;;;;;;;;4895142;29;20024;-59
2022/12/14 09:17:50;;;;;;;23.52;11.18;;;;;;;;;;4894773;29;20080;-59
2022/12/14 09:20:17;;;;;;;18.23;9.60;;;;;;;;;;4888065;29;20036;-59
2022/12/14 09:22:43;;;;;;;21.70;11.48;;;;;;;;;;4893922;29;20024;-59
2022/12/14 09:25:10;;;;;;;22.15;11.80;;;;;;;;;;4896310;29;20536;-65
2022/12/14 09:27:36;;;;;;;22.00;11.65;;;;;;;;;;4895897;29;20120;-58
2022/12/14 09:30:02;;;;;;;24.58;12.60;;;;;;;;;;4895819;29;20092;-59
2022/12/14 09:32:28;;;;;;;22.52;11.73;;;;;;;;;;4895974;29;20032;-63
2022/12/14 09:34:55;;;;;;;25.48;11.98;;;;;;;;;;4896172;29;20029;-60
2022/12/14 09:37:21;;;;;;;21.85;11.70;;;;;;;;;;4896141;29;20029;-58
2022/12/14 09:39:47;;;;;;;27.23;11.40;;;;;;;;;;4896109;29;20135;-64
2022/12/14 09:42:13;;;;;;;24.15;11.07;;;;;;;;;;4895940;29;20476;-64
2022/12/14 09:44:39;;;;;;;22.27;11.57;;;;;;;;;;4896271;29;20044;-65
2022/12/14 09:47:19;;;;;;;20.42;9.60;;;;;;;;;;4896221;29;20027;-63
2022/12/14 09:49:45;;;;;;;19.48;9.88;;;;;;;;;;4896241;29;20107;-58
2022/12/14 09:52:18;;;;;;;15.82;8.63;;;;;;;;;;4895804;29;20132;-64
2022/12/14 09:54:46;;;;;;;17.10;9.02;;;;;;;;;;4895957;29;20025;-59
2022/12/14 09:57:33;;;;;;;15.50;8.73;;;;;;;;;;4895850;29;20031;-58
2022/12/14 09:59:59;;;;;;;16.27;8.63;;;;;;;;;;4895967;29;20067;-64
2022/12/14 10:02:28;;;;;;;15.02;8.27;;;;;;;;;;4895363;29;20037;-62
2022/12/14 10:05:14;;;;;;;15.23;8.45;;;;;;;;;;4876269;29;20048;-64
2022/12/14 10:07:40;;;;;;;17.75;8.93;;;;;;;;;;4876497;29;20400;-59
2022/12/14 10:10:45;;;;;;;16.98;8.85;;;;;;;;;;4877252;29;20041;-59
2022/12/14 10:13:37;;;;;;;19.05;9.07;;;;;;;;;;4783321;30;20060;-58
2022/12/14 10:16:24;;;;;;;17.55;8.43;;;;;;;;;;4747376;30;20051;-62
2022/12/14 10:18:59;;;;;;;15.07;7.97;;;;;;;;;;4747260;30;20131;-59
2022/12/14 10:21:27;;;;;;;16.50;7.78;;;;;;;;;;4746978;30;20070;-59
2022/12/14 10:24:01;;;;;;;17.67;9.32;;;;;;;;;;4736216;30;20127;-59
2022/12/14 10:26:31;;;;;;;17.25;9.10;;;;;;;;;;4737053;30;20044;-60
2022/12/14 10:29:01;;;;;;;17.80;9.70;;;;;;;;;;4738240;30;20433;-60
2022/12/14 10:31:30;;;;;;;13.63;8.45;;;;;;;;;;4732750;30;20043;-60
2022/12/14 10:33:57;;;;;;;16.88;9.57;;;;;;;;;;4741244;30;20059;-59
2022/12/14 10:36:28;;;;;;;20.80;10.88;;;;;;;;;;4747600;30;20094;-59
2022/12/14 10:38:54;;;;;;;22.67;10.88;;;;;;;;;;4765383;30;20040;-60
2022/12/14 10:41:20;;;;;;;18.30;9.95;;;;;;;;;;4767303;30;20158;-59
2022/12/14 10:44:03;;;;;;;19.80;10.77;;;;;;;;;;4797738;29;20144;-60
2022/12/14 10:47:01;;;;;;;19.42;10.82;;;;;;;;;;4840968;29;20038;-61
2022/12/14 10:49:36;;;;;;;18.52;10.80;;;;;;;;;;4822495;29;20066;-58
2022/12/14 10:52:23;;;;;;;19.45;10.90;;;;;;;;;;4824993;29;20102;-60
2022/12/14 10:54:51;;;;;;;19.20;10.57;;;;;;;;;;4836293;29;20041;-60
2022/12/14 10:57:18;;;;;;;21.98;11.38;;;;;;;;;;4837173;29;20046;-59
2022/12/14 10:59:45;;;;;;;21.05;10.93;;;;;;;;;;4837442;29;20038;-59
2022/12/14 11:02:18;;;;;;;21.48;11.23;;;;;;;;;;4835984;29;20030;-58
2022/12/14 11:04:51;;;;;;;19.90;11.18;;;;;;;;;;4848572;29;20727;-59
2022/12/14 11:07:19;;;;;;;22.83;11.40;;;;;;;;;;4839191;29;20110;-66
2022/12/14 11:09:45;;;;;;;21.40;11.15;;;;;;;;;;4840040;29;20030;-60
2022/12/14 11:12:11;;;;;;;26.25;12.18;;;;;;;;;;4838639;29;20050;-60
2022/12/14 11:14:40;;;;;;;20.05;10.98;;;;;;;;;;4839280;29;20053;-66
2022/12/14 11:17:26;;;;;;;22.92;11.38;;;;;;;;;;4837886;29;20070;-61
2022/12/14 11:20:10;;;;;;;22.85;11.77;;;;;;;;;;4846531;29;20034;-58
2022/12/14 11:22:50;;;;;;;25.20;12.73;;;;;;;;;;4838490;29;20087;-59
2022/12/14 11:25:34;;;;;;;28.25;13.48;;;;;;;;;;4848461;29;20082;-59
2022/12/14 11:28:19;;;;;;;22.63;12.05;;;;;;;;;;4879725;29;20068;-59
2022/12/14 11:31:12;;;;;;;24.70;12.80;;;;;;;;;;4874785;29;20033;-62
2022/12/14 11:33:45;;;;;;;25.27;13.15;;;;;;;;;;4863708;29;20045;-59
2022/12/14 11:36:22;;;;;;;25.48;13.32;;;;;;;;;;4879508;29;20037;-64
2022/12/14 11:38:58;;;;;;;26.10;13.77;;;;;;;;;;4879488;29;20021;-60
2022/12/14 11:41:28;;;;;;;25.92;14.02;;;;;;;;;;4864951;29;20033;-59
2022/12/14 11:44:01;;;;;;;24.33;13.88;;;;;;;;;;4879086;29;20167;-59
2022/12/14 11:46:41;;;;;;;27.77;14.55;;;;;;;;;;4880085;29;20041;-63
2022/12/14 11:49:19;;;;;;;24.63;13.35;;;;;;;;;;4880705;29;20041;-59
2022/12/14 11:52:16;;;;;;;22.50;13.18;;;;;;;;;;4881280;29;20035;-60
2022/12/14 11:54:43;;;;;;;21.02;10.25;;;;;;;;;;4821608;29;20483;-59
2022/12/14 11:57:12;;;;;;;23.13;13.00;;;;;;;;;;4822047;29;20053;-59
2022/12/14 11:59:41;;;;;;;20.90;12.27;;;;;;;;;;4821568;29;20031;-59
2022/12/14 12:02:26;;;;;;;21.23;12.60;;;;;;;;;;4820504;29;20077;-60
2022/12/14 12:05:12;;;;;;;22.90;12.32;;;;;;;;;;4820546;29;20137;-59
2022/12/14 12:07:58;;;;;;;24.83;13.00;;;;;;;;;;4820750;29;20050;-60
2022/12/14 12:10:24;;;;;;;27.67;12.88;;;;;;;;;;4821541;29;20034;-59
2022/12/14 12:12:58;;;;;;;22.30;11.50;;;;;;;;;;4821420;29;20190;-66
2022/12/14 12:15:28;;;;;;;26.40;13.07;;;;;;;;;;4821459;29;20061;-59
2022/12/14 12:17:56;;;;;;;21.13;11.52;;;;;;;;;;4821097;29;20042;-70
2022/12/14 12:20:29;;;;;;;23.88;13.57;;;;;;;;;;4821049;29;20031;-59
2022/12/14 12:22:58;;;;;;;26.65;13.38;;;;;;;;;;4821277;29;20211;-60
2022/12/14 12:25:25;;;;;;;26.52;12.88;;;;;;;;;;4820860;29;20059;-58
2022/12/14 12:28:00;;;;;;;21.65;12.27;;;;;;;;;;4821750;29;20483;-59
2022/12/14 12:30:28;;;;;;;25.25;12.90;;;;;;;;;;4830508;29;20136;-59
2022/12/14 12:32:55;;;;;;;24.15;12.18;;;;;;;;;;4859792;29;20029;-59
2022/12/14 12:35:35;;;;;;;20.85;11.48;;;;;;;;;;4859669;29;20037;-64
2022/12/14 12:38:12;;;;;;;21.48;12.02;;;;;;;;;;4859963;29;20025;-59
2022/12/14 12:40:43;;;;;;;25.20;12.70;;;;;;;;;;4859861;29;20030;-59
2022/12/14 12:43:21;;;;;;;23.48;11.88;;;;;;;;;;4859760;29;20030;-61
2022/12/14 12:45:56;;;;;;;23.40;11.75;;;;;;;;;;4859809;29;20862;-59
2022/12/14 12:48:24;;;;;;;18.27;10.05;;;;;;;;;;4859548;29;20074;-60
2022/12/14 12:51:01;;;;;;;19.90;9.98;;;;;;;;;;4859867;29;20025;-59
2022/12/14 12:53:36;;;;;;;21.83;12.02;;;;;;;;;;4860229;29;20033;-61
2022/12/14 12:56:08;;;;;;;19.17;10.82;;;;;;;;;;4859129;29;20036;-59
2022/12/14 12:58:35;;;;;;;19.35;10.50;;;;;;;;;;4859531;29;20494;-59
2022/12/14 13:01:04;;;;;;;19.70;11.38;;;;;;;;;;4859705;29;20041;-59
2022/12/14 13:03:36;;;;;;;19.25;10.23;;;;;;;;;;4866572;29;20053;-60
2022/12/14 13:06:28;;;;;;;21.17;11.77;;;;;;;;;;4877726;29;20083;-59
2022/12/14 13:08:57;;;;;;;20.08;11.05;;;;;;;;;;4820872;29;20511;-59
2022/12/14 13:11:27;;;;;;;19.02;10.63;;;;;;;;;;4820844;29;20076;-59
2022/12/14 13:14:04;;;;;;;18.05;9.68;;;;;;;;;;4820264;29;20042;-58
2022/12/14 13:16:36;;;;;;;16.85;9.55;;;;;;;;;;4820890;29;20050;-59
2022/12/14 13:19:08;;;;;;;17.73;9.73;;;;;;;;;;4820273;29;20312;-59
2022/12/14 13:21:35;;;;;;;18.95;10.88;;;;;;;;;;4820598;29;20129;-59
2022/12/14 13:24:02;;;;;;;16.52;9.85;;;;;;;;;;4820376;29;20172;-59
2022/12/14 13:26:37;;;;;;;19.63;11.30;;;;;;;;;;4820642;29;20129;-61
2022/12/14 13:29:18;;;;;;;21.60;11.25;;;;;;;;;;4819698;29;20041;-59
2022/12/14 13:31:53;;;;;;;22.52;12.27;;;;;;;;;;4820545;29;20556;-59
2022/12/14 13:34:21;;;;;;;20.60;12.27;;;;;;;;;;4820152;29;20038;-59
2022/12/14 13:36:50;;;;;;;21.38;11.70;;;;;;;;;;4820128;29;20042;-59
2022/12/14 13:39:24;;;;;;;23.50;13.35;;;;;;;;;;4819927;29;20043;-59
2022/12/14 13:42:16;;;;;;;22.88;13.02;;;;;;;;;;4820096;29;20043;-59
2022/12/14 13:44:55;;;;;;;20.08;11.70;;;;;;;;;;4804848;29;20091;-60
2022/12/14 13:47:24;;;;;;;19.88;10.73;;;;;;;;;;4877561;29;20025;-59
2022/12/14 13:49:55;;;;;;;25.35;12.95;;;;;;;;;;4876836;29;20029;-59
2022/12/14 13:52:35;;;;;;;20.23;10.98;;;;;;;;;;4877327;29;20074;-59
2022/12/14 13:55:01;;;;;;;21.95;11.98;;;;;;;;;;4877390;29;20116;-59
2022/12/14 13:57:27;;;;;;;21.15;12.10;;;;;;;;;;4877572;29;20033;-60
2022/12/14 13:59:59;;;;;;;23.02;12.18;;;;;;;;;;4877448;29;20081;-59
2022/12/14 14:02:31;;;;;;;21.90;12.27;;;;;;;;;;4877191;29;20108;-59
2022/12/14 14:05:19;;;;;;;22.67;12.40;;;;;;;;;;4877267;29;20049;-59
2022/12/14 14:08:00;;;;;;;29.08;13.73;;;;;;;;;;4877377;29;20512;-59
2022/12/14 14:10:41;;;;;;;27.02;14.35;;;;;;;;;;4877228;29;20545;-59
2022/12/14 14:13:25;;;;;;;25.60;14.65;;;;;;;;;;4877229;29;20033;-63
2022/12/14 14:15:53;;;;;;;26.83;13.43;;;;;;;;;;4876738;29;20036;-62
2022/12/14 14:18:25;;;;;;;20.95;12.80;;;;;;;;;;4877070;29;20025;-62
2022/12/14 14:20:53;;;;;;;22.50;11.05;;;;;;;;;;4876924;29;20033;-61
2022/12/14 14:23:20;;;;;;;25.27;12.82;;;;;;;;;;4876893;29;20029;-59
2022/12/14 14:25:46;;;;;;;21.05;12.07;;;;;;;;;;4877269;29;20025;-59
2022/12/14 14:28:13;;;;;;;24.52;13.45;;;;;;;;;;4876852;29;20488;-60
2022/12/14 14:30:48;;;;;;;29.50;13.98;;;;;;;;;;4877022;29;20025;-59
2022/12/14 14:33:37;;;;;;;27.95;14.02;;;;;;;;;;4876802;29;20084;-59
2022/12/14 14:36:21;;;;;;;25.75;13.57;;;;;;;;;;4818977;29;20042;-61
2022/12/14 14:38:48;;;;;;;26.13;14.10;;;;;;;;;;4819646;29;20030;-64
2022/12/14 14:41:20;;;;;;;23.63;13.38;;;;;;;;;;4819496;29;20046;-59
2022/12/14 14:43:47;;;;;;;24.42;13.48;;;;;;;;;;4818614;29;20087;-67
2022/12/14 14:46:13;;;;;;;20.10;11.32;;;;;;;;;;4819084;29;20047;-58
2022/12/14 14:48:49;;;;;;;24.52;12.45;;;;;;;;;;4819211;29;20038;-60
2022/12/14 14:51:26;;;;;;;20.67;11.98;;;;;;;;;;4819095;29;20606;-62
2022/12/14 14:54:11;;;;;;;20.27;11.30;;;;;;;;;;4818920;29;20047;-63
2022/12/14 14:56:38;;;;;;;20.13;11.73;;;;;;;;;;4819879;29;20033;-67
2022/12/14 14:59:16;;;;;;;21.83;11.95;;;;;;;;;;4819082;29;20034;-59
2022/12/14 15:01:42;;;;;;;20.33;12.07;;;;;;;;;;4819335;29;20103;-66
2022/12/14 15:04:20;;;;;;;22.02;12.52;;;;;;;;;;4818886;29;20084;-64
2022/12/14 15:06:48;;;;;;;23.38;13.43;;;;;;;;;;4818996;29;20518;-59
2022/12/14 15:09:19;;;;;;;20.17;11.68;;;;;;;;;;4819075;29;20035;-59
2022/12/14 15:11:53;;;;;;;22.27;11.35;;;;;;;;;;4818932;29;20038;-59
2022/12/14 15:14:19;;;;;;;23.02;12.20;;;;;;;;;;4857744;29;20033;-59
2022/12/14 15:16:45;;;;;;;19.90;11.63;;;;;;;;;;4857796;29;20600;-58
2022/12/14 15:19:28;;;;;;;25.08;12.65;;;;;;;;;;4857984;29;20076;-59
2022/12/14 15:21:59;;;;;;;20.50;11.27;;;;;;;;;;4857829;29;20288;-59
2022/12/14 15:24:25;;;;;;;20.90;11.60;;;;;;;;;;4857776;29;20041;-60
2022/12/14 15:26:52;;;;;;;21.55;11.70;;;;;;;;;;4861881;29;20945;-59
2022/12/14 15:29:21;;;;;;;20.65;10.88;;;;;;;;;;4862030;29;20025;-59
2022/12/14 15:31:49;;;;;;;24.02;12.68;;;;;;;;;;4863336;29;20048;-59
2022/12/14 15:34:16;;;;;;;20.83;12.38;;;;;;;;;;4877641;29;20035;-63
2022/12/14 15:36:43;;;;;;;24.48;13.05;;;;;;;;;;4879387;29;20033;-59
2022/12/14 15:39:45;;;;;;;22.58;12.52;;;;;;;;;;4879509;29;20037;-62
2022/12/14 15:42:13;;;;;;;26.25;13.65;;;;;;;;;;4785782;30;20039;-59
2022/12/14 15:44:47;;;;;;;25.58;14.43;;;;;;;;;;4803094;29;20051;-64
2022/12/14 15:47:24;;;;;;;28.75;14.38;;;;;;;;;;4805586;29;20061;-61
2022/12/14 15:49:50;;;;;;;34.63;16.83;;;;;;;;;;4814066;29;20047;-63
2022/12/14 15:52:16;;;;;;;35.97;17.75;;;;;;;;;;4812047;29;20491;-60
2022/12/14 15:54:43;;;;;;;31.05;15.88;;;;;;;;;;4819855;29;20042;-65
2022/12/14 15:57:16;;;;;;;31.30;16.58;;;;;;;;;;4820975;29;20606;-61
2022/12/14 15:59:42;;;;;;;;;;;;;;;;;;4821969;29;20561;-66
2022/12/14 16:02:22;;;;;;;35.90;18.98;;;;;;;;;;4821562;29;20386;-60
2022/12/14 16:04:48;;;;;;;37.03;18.58;;;;;;;;;;4821414;29;20078;-59
2022/12/14 16:07:35;;;;;;;35.80;17.20;;;;;;;;;;4821367;29;20117;-59
2022/12/14 16:10:03;;;;;;;36.63;19.17;;;;;;;;;;4821613;29;20046;-59
2022/12/14 16:12:43;;;;;;;35.97;17.40;;;;;;;;;;4821371;29;20117;-74
2022/12/14 16:15:19;;;;;;;34.05;17.20;;;;;;;;;;4824783;29;20037;-67
2022/12/14 16:17:46;;;;;;;32.05;16.30;;;;;;;;;;4860693;29;20029;-73
2022/12/14 16:20:22;;;;;;;40.67;20.02;;;;;;;;;;4860621;29;20038;-65
2022/12/14 16:22:58;;;;;;;36.13;18.20;;;;;;;;;;4860362;29;20034;-69
2022/12/14 16:25:24;;;;;;;42.50;20.08;;;;;;;;;;4860126;29;20041;-64
2022/12/14 16:27:50;;;;;;;38.47;19.92;;;;;;;;;;4860414;29;20021;-69
2022/12/14 16:30:28;;;;;;;40.67;19.63;;;;;;;;;;4860594;29;20029;-63
2022/12/14 16:33:13;;;;;;;37.95;18.95;;;;;;;;;;4860225;29;20086;-66
2022/12/14 16:35:39;;;;;;;35.65;17.70;;;;;;;;;;4859957;29;20041;-63
2022/12/14 16:38:13;;;;;;;35.75;16.88;;;;;;;;;;4859705;29;20034;-59
2022/12/14 16:40:41;;;;;;;36.67;17.10;;;;;;;;;;4860279;29;20032;-59
2022/12/14 16:43:22;;;;;;;36.63;18.13;;;;;;;;;;4860114;29;20121;-59
2022/12/14 16:46:09;;;;;;;43.35;19.20;;;;;;;;;;4859742;29;20033;-68
2022/12/14 16:48:37;;;;;;;39.33;19.40;;;;;;;;;;4859808;29;20044;-62
2022/12/14 16:51:21;;;;;;;45.92;21.10;;;;;;;;;;4859637;29;20033;-64
2022/12/14 16:53:51;;;;;;;42.65;19.85;;;;;;;;;;4858336;29;20058;-65
2022/12/14 16:56:20;;;;;;;48.83;20.92;;;;;;;;;;4859036;29;20038;-67
2022/12/14 16:59:03;;;;;;;44.50;21.65;;;;;;;;;;4859198;29;20516;-65
2022/12/14 17:01:38;;;;;;;40.97;19.55;;;;;;;;;;4858291;29;20120;-70
2022/12/14 17:04:06;;;;;;;40.55;19.85;;;;;;;;;;4868597;29;20053;-63
2022/12/14 17:06:42;;;;;;;37.33;19.58;;;;;;;;;;4877211;29;20045;-60
2022/12/14 17:09:13;;;;;;;40.50;19.70;;;;;;;;;;4877954;29;20017;-67
2022/12/14 17:11:39;;;;;;;39.35;19.25;;;;;;;;;;4878238;29;20497;-67
2022/12/14 17:14:05;;;;;;;41.35;21.83;;;;;;;;;;4878018;29;20040;-69
2022/12/14 17:16:31;;;;;;;45.20;21.17;;;;;;;;;;4877694;29;20041;-60
2022/12/14 17:18:57;;;;;;;42.83;21.33;;;;;;;;;;4877153;29;20037;-60
2022/12/14 17:21:26;;;;;;;36.90;19.20;;;;;;;;;;4877064;29;20047;-60
2022/12/14 17:23:52;;;;;;;36.83;18.35;;;;;;;;;;4876621;29;20717;-61
2022/12/14 17:26:20;;;;;;;39.58;19.95;;;;;;;;;;4877272;29;20033;-67
2022/12/14 17:28:46;;;;;;;46.92;23.52;;;;;;;;;;4877537;29;20032;-68
2022/12/14 17:31:12;;;;;;;45.25;21.48;;;;;;;;;;4877460;29;20461;-61
2022/12/14 17:33:38;;;;;;;47.95;22.70;;;;;;;;;;4876999;29;20112;-60
2022/12/14 17:36:05;;;;;;;48.80;24.38;;;;;;;;;;4886927;29;20029;-66
2022/12/14 17:38:31;;;;;;;49.47;23.73;;;;;;;;;;4885200;29;20081;-66
2022/12/14 17:40:57;;;;;;;44.20;23.10;;;;;;;;;;4886152;29;20023;-60
2022/12/14 17:43:26;;;;;;;44.00;21.35;;;;;;;;;;4886905;29;20029;-64
2022/12/14 17:45:52;;;;;;;40.40;20.60;;;;;;;;;;4885615;29;20029;-64
2022/12/14 17:48:18;;;;;;;41.22;21.25;;;;;;;;;;4885662;29;20025;-62
2022/12/14 17:50:46;;;;;;;43.83;20.55;;;;;;;;;;4886256;29;20033;-65
2022/12/14 17:53:13;;;;;;;42.08;21.58;;;;;;;;;;4885561;29;20029;-59
2022/12/14 17:55:39;;;;;;;46.10;22.73;;;;;;;;;;4886012;29;20028;-65
2022/12/14 17:58:06;;;;;;;47.42;21.85;;;;;;;;;;4886840;29;20434;-64
2022/12/14 18:03:19;;;;;;;42.67;20.45;;;;;;;;;;4883243;29;20076;-65
2022/12/14 18:05:48;;;;;;;39.78;20.75;;;;;;;;;;4894887;29;20470;-58
2022/12/14 18:08:14;;;;;;;43.15;21.85;;;;;;;;;;4895000;29;20032;-59
2022/12/14 18:10:40;;;;;;;42.83;21.98;;;;;;;;;;4895668;29;20049;-58
2022/12/14 18:13:06;;;;;;;47.72;22.13;;;;;;;;;;4895576;29;20035;-60
2022/12/14 18:15:37;;;;;;;40.15;21.60;;;;;;;;;;4895534;29;20033;-60
2022/12/14 18:18:04;;;;;;;40.15;20.60;;;;;;;;;;4895542;29;20532;-60
2022/12/14 18:20:30;;;;;;;46.10;20.85;;;;;;;;;;4895605;29;20476;-58
2022/12/14 18:22:56;;;;;;;41.47;21.13;;;;;;;;;;4895436;29;20060;-59
2022/12/14 18:25:28;;;;;;;43.83;22.83;;;;;;;;;;4895309;29;20457;-63
2022/12/14 18:27:54;;;;;;;44.25;21.73;;;;;;;;;;4895511;29;20473;-64
2022/12/14 18:30:21;;;;;;;40.20;21.23;;;;;;;;;;4895752;29;20040;-60
2022/12/14 18:32:47;;;;;;;43.08;21.20;;;;;;;;;;4895450;29;20088;-59
2022/12/14 18:35:20;;;;;;;47.60;22.33;;;;;;;;;;4895545;29;20115;-59
2022/12/14 18:37:47;;;;;;;42.00;20.63;;;;;;;;;;4895649;29;20437;-60
2022/12/14 18:40:15;;;;;;;39.83;20.48;;;;;;;;;;4895857;29;20066;-60
2022/12/14 18:42:42;;;;;;;41.17;20.85;;;;;;;;;;4894902;29;20100;-60
2022/12/14 18:45:15;;;;;;;38.95;18.98;;;;;;;;;;4895338;29;20044;-60
2022/12/14 18:47:42;;;;;;;40.25;20.95;;;;;;;;;;4895468;29;20041;-59
2022/12/14 18:50:08;;;;;;;40.78;21.27;;;;;;;;;;4895611;29;20092;-60
2022/12/14 18:52:34;;;;;;;40.85;19.73;;;;;;;;;;4895542;29;20107;-59
2022/12/14 18:55:00;;;;;;;50.15;23.23;;;;;;;;;;4895416;29;20056;-60
2022/12/14 18:57:27;;;;;;;41.00;20.98;;;;;;;;;;4896183;29;20611;-61
2022/12/14 18:59:53;;;;;;;43.28;22.10;;;;;;;;;;4879588;29;20025;-58
2022/12/14 19:02:19;;;;;;;40.95;21.48;;;;;;;;;;4896369;29;20096;-60
2022/12/14 19:04:49;;;;;;;42.95;21.00;;;;;;;;;;4884230;29;20087;-65
2022/12/14 19:07:15;;;;;;;38.88;20.25;;;;;;;;;;4880457;29;20029;-59
2022/12/14 19:09:41;;;;;;;41.60;20.80;;;;;;;;;;4880251;29;20048;-61
2022/12/14 19:12:09;;;;;;;37.72;19.90;;;;;;;;;;4880011;29;20160;-59
2022/12/14 19:14:35;;;;;;;41.58;18.45;;;;;;;;;;4880055;29;20041;-59
2022/12/14 19:17:02;;;;;;;36.92;18.88;;;;;;;;;;4880266;29;20029;-60
2022/12/14 19:19:28;;;;;;;38.53;17.98;;;;;;;;;;4879614;29;20489;-59
2022/12/14 19:21:54;;;;;;;38.40;19.40;;;;;;;;;;4879865;29;20025;-63
2022/12/14 19:24:20;;;;;;;34.22;18.52;;;;;;;;;;4879733;29;20040;-59
2022/12/14 19:26:46;;;;;;;35.10;18.35;;;;;;;;;;4879993;29;20033;-59
2022/12/14 19:29:12;;;;;;;33.85;17.50;;;;;;;;;;4879787;29;20029;-59
2022/12/14 19:31:38;;;;;;;33.38;16.90;;;;;;;;;;4879709;29;20033;-60
2022/12/14 19:34:04;;;;;;;30.05;15.90;;;;;;;;;;4879449;29;20036;-65
2022/12/14 19:36:30;;;;;;;29.73;14.73;;;;;;;;;;4879629;29;20029;-60
2022/12/14 19:38:56;;;;;;;29.80;15.57;;;;;;;;;;4879596;29;20039;-65
2022/12/14 19:41:23;;;;;;;33.92;16.08;;;;;;;;;;4879705;29;20109;-66
2022/12/14 19:43:49;;;;;;;35.90;16.88;;;;;;;;;;4879250;29;20021;-65
2022/12/14 19:46:16;;;;;;;34.00;16.88;;;;;;;;;;4879453;29;20033;-60
2022/12/14 19:48:42;;;;;;;30.40;16.92;;;;;;;;;;4879214;29;20035;-60
2022/12/14 19:51:09;;;;;;;29.80;16.17;;;;;;;;;;4879814;29;20511;-63
2022/12/14 19:53:36;;;;;;;31.60;15.23;;;;;;;;;;4879001;29;20036;-59
2022/12/14 19:56:02;;;;;;;34.20;16.67;;;;;;;;;;4879473;29;20044;-60
2022/12/14 19:58:28;;;;;;;33.53;16.00;;;;;;;;;;4879452;29;20033;-59
2022/12/14 20:00:54;;;;;;;32.25;17.10;;;;;;;;;;4878995;29;20033;-59
2022/12/14 20:03:21;;;;;;;34.33;17.10;;;;;;;;;;4878553;29;20065;-60
2022/12/14 20:05:54;;;;;;;37.72;17.98;;;;;;;;;;4878927;29;20068;-59
2022/12/14 20:08:20;;;;;;;36.63;18.48;;;;;;;;;;4878757;29;20033;-60
2022/12/14 20:10:46;;;;;;;35.42;16.35;;;;;;;;;;4879132;29;20060;-60
2022/12/14 20:13:12;;;;;;;33.40;17.55;;;;;;;;;;4878126;29;20573;-60
2022/12/14 20:15:38;;;;;;;41.53;18.52;;;;;;;;;;4878653;29;20033;-60
2022/12/14 20:18:06;;;;;;;36.50;18.27;;;;;;;;;;4878690;29;20036;-60
2022/12/14 20:20:32;;;;;;;37.88;18.88;;;;;;;;;;4878646;29;20485;-60
2022/12/14 20:22:58;;;;;;;34.65;17.40;;;;;;;;;;4878093;29;20112;-59
2022/12/14 20:25:24;;;;;;;36.38;18.63;;;;;;;;;;4878668;29;20041;-60
2022/12/14 20:27:51;;;;;;;35.67;17.90;;;;;;;;;;4878756;29;20032;-60
2022/12/14 20:30:17;;;;;;;32.78;17.08;;;;;;;;;;4878570;29;20029;-60
2022/12/14 20:32:43;;;;;;;34.97;17.30;;;;;;;;;;4878367;29;20035;-59
2022/12/14 20:35:17;;;;;;;36.00;17.42;;;;;;;;;;4878337;29;20037;-59
2022/12/14 20:37:43;;;;;;;35.63;18.23;;;;;;;;;;4877431;29;20149;-58
2022/12/14 20:40:09;;;;;;;37.50;18.92;;;;;;;;;;4876906;29;20036;-59
2022/12/14 20:42:36;;;;;;;33.47;17.73;;;;;;;;;;4876307;29;20351;-59
2022/12/14 20:45:05;;;;;;;34.30;18.00;;;;;;;;;;4878101;29;20132;-60